Time;durP1;ratioP1;P1;durP2;ratioP2;P2;SDS_P1;SDS_P2;PMS_P1;PMS_P2;Temp;Humidity;BMP_temperature;BMP_pressure;BME280_temperature;BME280_humidity;BME280_pressure;Samples;Min_cycle;Max_cycle;Signal;HPM_P1;HPM_P2
2021/11/09 00:02:01;;;;;;;43.50;15.27;;;5.00;99.90;;;;;;5041663;28;20033;-85
2021/11/09 00:04:26;;;;;;;40.05;15.30;;;5.00;99.90;;;;;;5045639;28;20041;-85
2021/11/09 00:07:38;;;;;;;38.33;15.57;;;5.00;99.90;;;;;;5034939;28;20032;-85
2021/11/09 00:09:56;;;;;;;35.50;14.25;;;5.00;99.90;;;;;;5047490;28;20036;-85
2021/11/09 00:12:26;;;;;;;40.35;15.27;;;4.90;99.90;;;;;;5036398;28;20029;-85
2021/11/09 00:14:52;;;;;;;33.78;13.88;;;4.90;99.90;;;;;;5024236;28;20017;-85
2021/11/09 00:17:17;;;;;;;27.58;12.45;;;4.90;99.90;;;;;;5036973;28;20638;-85
2021/11/09 00:19:43;;;;;;;33.17;14.10;;;4.90;99.90;;;;;;5030416;28;20116;-85
2021/11/09 00:22:08;;;;;;;27.77;13.40;;;4.90;99.90;;;;;;5033971;28;20021;-85
2021/11/09 00:24:34;;;;;;;30.38;15.13;;;4.80;99.90;;;;;;5027935;28;20059;-85
2021/11/09 00:27:00;;;;;;;33.28;15.32;;;4.80;99.90;;;;;;5025422;28;20041;-85
2021/11/09 00:29:25;;;;;;;39.38;15.18;;;4.70;99.90;;;;;;5021837;28;20025;-85
2021/11/09 00:31:51;;;;;;;41.78;15.77;;;4.70;99.90;;;;;;5045277;28;20116;-85
2021/11/09 00:34:16;;;;;;;44.05;15.50;;;4.70;99.90;;;;;;5038072;28;20362;-85
2021/11/09 00:36:42;;;;;;;35.30;16.00;;;4.70;99.90;;;;;;5025929;28;20029;-85
2021/11/09 00:39:08;;;;;;;43.60;16.58;;;4.70;99.90;;;;;;5025361;28;20076;-85
2021/11/09 00:41:34;;;;;;;38.80;15.02;;;4.70;99.90;;;;;;5023611;28;20060;-85
2021/11/09 00:43:59;;;;;;;45.70;16.92;;;4.70;99.90;;;;;;5032061;28;20060;-85
2021/11/09 00:46:25;;;;;;;43.22;16.30;;;4.60;99.90;;;;;;5051294;28;20036;-85
2021/11/09 00:48:50;;;;;;;36.95;15.98;;;4.60;99.90;;;;;;5049419;28;20457;-85
2021/11/09 00:51:16;;;;;;;35.35;15.77;;;4.60;99.90;;;;;;5036741;28;20021;-85
2021/11/09 00:53:42;;;;;;;42.55;17.15;;;4.50;99.90;;;;;;5037371;28;20070;-85
2021/11/09 00:56:08;;;;;;;41.25;15.70;;;4.50;99.90;;;;;;5033839;28;20029;-84
2021/11/09 00:58:33;;;;;;;37.47;16.60;;;4.50;99.90;;;;;;5024408;28;20033;-85
2021/11/09 01:00:59;;;;;;;41.80;15.98;;;4.50;99.90;;;;;;5034816;28;20029;-85
2021/11/09 01:03:24;;;;;;;39.08;16.75;;;4.50;99.90;;;;;;5026879;28;20036;-85
2021/11/09 01:05:50;;;;;;;42.35;16.13;;;4.50;99.90;;;;;;5029602;28;20093;-85
2021/11/09 01:08:18;;;;;;;38.88;15.48;;;4.50;99.90;;;;;;5023271;28;20021;-85
2021/11/09 01:10:47;;;;;;;47.03;16.23;;;4.50;99.90;;;;;;5027634;28;20143;-85
2021/11/09 01:13:15;;;;;;;52.50;17.73;;;4.40;99.90;;;;;;5024129;28;20364;-85
2021/11/09 01:15:49;;;;;;;40.75;16.73;;;4.40;99.90;;;;;;5021905;28;20526;-84
2021/11/09 01:18:24;;;;;;;45.17;17.05;;;4.40;99.90;;;;;;5031303;28;20052;-85
2021/11/09 01:20:49;;;;;;;49.58;16.73;;;4.40;99.90;;;;;;5025639;28;20049;-85
2021/11/09 01:23:15;;;;;;;48.85;17.95;;;4.40;99.90;;;;;;5024245;28;20492;-85
2021/11/09 01:25:41;;;;;;;46.58;17.58;;;4.40;99.90;;;;;;5027655;28;20119;-85
2021/11/09 01:28:08;;;;;;;38.88;16.38;;;4.30;99.90;;;;;;5034833;28;20495;-85
2021/11/09 01:30:34;;;;;;;41.30;16.20;;;4.40;99.90;;;;;;5034841;28;20029;-85
2021/11/09 01:33:01;;;;;;;43.03;16.08;;;4.40;99.90;;;;;;5031541;28;20504;-85
2021/11/09 01:35:26;;;;;;;45.72;16.85;;;4.40;99.90;;;;;;5025029;28;20060;-85
2021/11/09 01:37:53;;;;;;;36.30;16.38;;;4.30;99.90;;;;;;5028482;28;20037;-84
2021/11/09 01:40:23;;;;;;;42.67;17.25;;;4.30;99.90;;;;;;5023351;28;20018;-85
2021/11/09 01:42:49;;;;;;;42.40;16.40;;;4.30;99.90;;;;;;5022567;28;20143;-85
2021/11/09 01:45:15;;;;;;;47.00;15.48;;;4.30;99.90;;;;;;5026301;28;20394;-85
2021/11/09 01:47:42;;;;;;;34.60;16.30;;;4.30;99.90;;;;;;5035642;28;20299;-85
2021/11/09 01:50:10;;;;;;;40.70;15.57;;;4.30;99.90;;;;;;5034164;28;20060;-86
2021/11/09 01:52:39;;;;;;;46.28;16.23;;;4.30;99.90;;;;;;5031832;28;20075;-85
2021/11/09 01:55:08;;;;;;;45.38;16.33;;;4.30;99.90;;;;;;5035218;28;20032;-85
2021/11/09 01:57:34;;;;;;;40.60;16.10;;;4.30;99.90;;;;;;5046720;28;20140;-85
2021/11/09 02:00:03;;;;;;;43.90;17.15;;;4.30;99.90;;;;;;5023381;28;20048;-85
2021/11/09 02:02:29;;;;;;;50.55;17.50;;;4.30;99.90;;;;;;5025484;28;20074;-85
2021/11/09 02:04:55;;;;;;;49.10;16.90;;;4.30;99.90;;;;;;5034097;28;20035;-86
2021/11/09 02:07:21;;;;;;;42.08;15.43;;;4.30;99.90;;;;;;5035166;28;20029;-85
2021/11/09 02:09:47;;;;;;;41.33;15.88;;;4.30;99.90;;;;;;5030703;28;20029;-84
2021/11/09 02:12:12;;;;;;;38.90;16.25;;;4.30;99.90;;;;;;5031577;28;20124;-84
2021/11/09 02:14:38;;;;;;;39.50;15.82;;;4.30;99.90;;;;;;5022552;28;20450;-85
2021/11/09 02:17:05;;;;;;;50.67;16.90;;;4.30;99.90;;;;;;5047283;28;20060;-85
2021/11/09 02:19:30;;;;;;;45.70;17.83;;;4.30;99.90;;;;;;5042024;28;20048;-85
2021/11/09 02:21:57;;;;;;;41.15;17.23;;;4.30;99.90;;;;;;5033482;28;20473;-85
2021/11/09 02:24:23;;;;;;;46.60;16.75;;;4.30;99.90;;;;;;5032347;28;20040;-85
2021/11/09 02:26:49;;;;;;;32.80;14.77;;;4.30;99.90;;;;;;5028492;28;20032;-85
2021/11/09 02:29:14;;;;;;;39.00;16.08;;;4.30;99.90;;;;;;5033952;28;20059;-85
2021/11/09 02:31:40;;;;;;;38.78;15.25;;;4.30;99.90;;;;;;5022640;28;20112;-85
2021/11/09 02:34:05;;;;;;;48.45;15.70;;;4.30;99.90;;;;;;5028634;28;20026;-84
2021/11/09 02:36:31;;;;;;;61.47;18.08;;;4.20;99.90;;;;;;5031209;28;20029;-85
2021/11/09 02:38:57;;;;;;;47.05;16.60;;;4.20;99.90;;;;;;5028699;28;20025;-85
2021/11/09 02:41:22;;;;;;;43.88;18.75;;;4.20;99.90;;;;;;5032375;28;20068;-85
2021/11/09 02:43:48;;;;;;;45.83;16.38;;;4.20;99.90;;;;;;5023843;28;20033;-84
2021/11/09 02:48:59;;;;;;;51.25;16.25;;;4.20;99.90;;;;;;5049052;28;20037;-87
2021/11/09 02:51:44;;;;;;;49.28;17.05;;;4.10;99.90;;;;;;5033423;28;20032;-86
2021/11/09 02:54:58;;;;;;;47.10;16.35;;;4.20;99.90;;;;;;5025466;28;20072;-86
2021/11/09 02:57:05;;;;;;;47.47;17.25;;;4.10;99.90;;;;;;5034978;28;20067;-86
2021/11/09 02:59:58;;;;;;;49.33;18.60;;;4.10;99.90;;;;;;5032473;28;20052;-86
2021/11/09 03:02:43;;;;;;;42.28;16.30;;;4.10;99.90;;;;;;5028282;28;20036;-86
2021/11/09 03:10:25;;;;;;;42.20;18.88;;;4.10;99.90;;;;;;5042958;28;20032;-85
2021/11/09 03:12:50;;;;;;;43.72;16.65;;;4.10;99.90;;;;;;5023269;28;20030;-85
2021/11/09 03:15:21;;;;;;;41.33;16.13;;;4.10;99.90;;;;;;5046859;28;20388;-85
2021/11/09 03:17:54;;;;;;;46.42;17.80;;;4.10;99.90;;;;;;5044041;28;20021;-86
2021/11/09 03:20:35;;;;;;;41.97;17.60;;;4.00;99.90;;;;;;5036285;28;20370;-85
2021/11/09 03:44:56;;;;;;;54.47;20.08;;;3.90;99.90;;;;;;5049770;28;20044;-86
2021/11/09 03:47:22;;;;;;;46.22;18.67;;;3.90;99.90;;;;;;5025044;28;20021;-86
2021/11/09 03:49:50;;;;;;;51.25;19.80;;;4.00;99.90;;;;;;5030260;28;20048;-84
2021/11/09 03:52:21;;;;;;;44.70;19.25;;;4.00;99.90;;;;;;5052755;28;20017;-84
2021/11/09 03:54:53;;;;;;;50.97;19.48;;;4.00;99.90;;;;;;5034353;28;20029;-84
2021/11/09 03:57:26;;;;;;;51.23;19.73;;;4.00;99.90;;;;;;5036410;28;20396;-85
2021/11/09 04:02:33;;;;;;;46.53;19.77;;;3.90;99.90;;;;;;5045815;28;20112;-84
2021/11/09 04:05:08;;;;;;;50.40;19.80;;;4.00;99.90;;;;;;5035100;28;20421;-84
2021/11/09 04:15:31;;;;;;;49.67;20.23;;;3.90;99.90;;;;;;5051915;28;20036;-86
2021/11/09 04:18:09;;;;;;;57.35;21.85;;;3.90;99.90;;;;;;5033441;28;20021;-86
2021/11/09 04:20:51;;;;;;;58.78;23.83;;;3.90;99.90;;;;;;5031537;28;20039;-85
2021/11/09 04:34:01;;;;;;;55.30;22.17;;;3.80;99.90;;;;;;5053369;28;20055;-85
2021/11/09 05:08:25;;;;;;;45.38;20.05;;;3.70;99.90;;;;;;5042569;28;20115;-83
2021/11/09 05:10:54;;;;;;;55.05;20.45;;;3.80;99.90;;;;;;5038045;28;20111;-84
2021/11/09 05:13:20;;;;;;;45.75;20.27;;;3.80;99.90;;;;;;5033563;28;20028;-84
2021/11/09 05:15:45;;;;;;;48.88;20.98;;;3.70;99.90;;;;;;5030537;28;20483;-86
2021/11/09 05:18:11;;;;;;;44.03;19.92;;;3.70;99.90;;;;;;5030263;28;20041;-86
2021/11/09 05:20:37;;;;;;;59.58;20.95;;;3.70;99.90;;;;;;5036802;28;20025;-84
2021/11/09 05:23:02;;;;;;;52.00;21.40;;;3.70;99.90;;;;;;5037987;28;20120;-85
2021/11/09 05:25:28;;;;;;;50.38;19.27;;;3.70;99.90;;;;;;5036693;28;20060;-85
2021/11/09 05:27:54;;;;;;;42.67;18.60;;;3.70;99.90;;;;;;5031501;28;20025;-85
2021/11/09 05:30:21;;;;;;;58.78;22.13;;;3.60;99.90;;;;;;5022752;28;20033;-84
2021/11/09 05:32:47;;;;;;;48.35;18.88;;;3.70;99.90;;;;;;5030958;28;20032;-86
2021/11/09 05:35:13;;;;;;;41.78;19.38;;;3.70;99.90;;;;;;5029370;28;20032;-85
2021/11/09 05:37:45;;;;;;;53.47;20.60;;;3.70;99.90;;;;;;5030427;28;20025;-85
2021/11/09 05:40:11;;;;;;;45.93;19.43;;;3.70;99.90;;;;;;5028309;28;20061;-85
2021/11/09 05:42:37;;;;;;;48.20;19.92;;;3.70;99.90;;;;;;5032430;28;20319;-85
2021/11/09 05:45:05;;;;;;;51.00;20.40;;;3.70;99.90;;;;;;5028370;28;20064;-84
2021/11/09 05:47:30;;;;;;;51.13;19.25;;;3.70;99.90;;;;;;5033152;28;20119;-85
2021/11/09 05:49:56;;;;;;;49.40;19.67;;;3.60;99.90;;;;;;5024986;28;20060;-85
2021/11/09 05:52:22;;;;;;;43.50;19.83;;;3.70;99.90;;;;;;5039146;28;20465;-85
2021/11/09 05:54:47;;;;;;;50.92;20.80;;;3.70;99.90;;;;;;5034745;28;20132;-85
2021/11/09 05:57:13;;;;;;;51.17;20.60;;;3.70;99.90;;;;;;5030569;28;20029;-86
2021/11/09 05:59:38;;;;;;;54.33;21.38;;;3.70;99.90;;;;;;5027012;28;20053;-85
2021/11/09 06:02:04;;;;;;;49.20;20.42;;;3.70;99.90;;;;;;5028172;28;20037;-85
2021/11/09 06:04:30;;;;;;;49.78;19.63;;;3.70;99.90;;;;;;5029353;28;20040;-85
2021/11/09 06:06:55;;;;;;;51.35;20.77;;;3.70;99.90;;;;;;5027219;28;20171;-86
2021/11/09 06:09:21;;;;;;;51.25;19.00;;;3.70;99.90;;;;;;5029154;28;20489;-84
2021/11/09 06:11:47;;;;;;;55.45;19.60;;;3.70;99.90;;;;;;5049771;28;20021;-85
2021/11/09 06:14:13;;;;;;;49.80;20.42;;;3.70;99.90;;;;;;5052042;28;20494;-85
2021/11/09 06:16:38;;;;;;;60.45;21.65;;;3.70;99.90;;;;;;5035075;28;20029;-85
2021/11/09 06:19:05;;;;;;;59.13;21.13;;;3.80;99.90;;;;;;5049567;28;20100;-85
2021/11/09 06:21:31;;;;;;;51.28;20.17;;;3.80;99.90;;;;;;5033790;28;20028;-85
2021/11/09 06:23:57;;;;;;;61.00;22.25;;;3.80;99.90;;;;;;5031239;28;20107;-87
2021/11/09 06:26:24;;;;;;;62.72;20.90;;;3.80;99.90;;;;;;5045225;28;20555;-84
2021/11/09 06:28:55;;;;;;;60.45;21.45;;;3.80;99.90;;;;;;5029876;28;20460;-85
2021/11/09 06:31:20;;;;;;;60.63;20.60;;;3.80;99.90;;;;;;5029410;28;20109;-84
2021/11/09 06:33:46;;;;;;;57.92;20.48;;;3.80;99.90;;;;;;5030240;28;20029;-85
2021/11/09 06:36:11;;;;;;;63.10;21.48;;;3.80;99.90;;;;;;5028205;28;20033;-85
2021/11/09 06:38:37;;;;;;;48.47;18.48;;;3.80;99.90;;;;;;5025135;28;20021;-85
2021/11/09 06:41:03;;;;;;;51.45;20.45;;;3.80;99.90;;;;;;5033934;28;20124;-85
2021/11/09 06:43:28;;;;;;;55.08;20.98;;;3.80;99.90;;;;;;5033426;28;20025;-84
2021/11/09 06:45:56;;;;;;;58.60;22.02;;;3.90;99.90;;;;;;5029719;28;20032;-94
2021/11/09 06:48:26;;;;;;;60.22;21.67;;;3.90;99.90;;;;;;5033971;28;20048;-85
2021/11/09 06:50:52;;;;;;;51.67;18.90;;;3.90;99.90;;;;;;5028530;28;20108;-85
2021/11/09 06:53:18;;;;;;;52.63;19.17;;;3.80;99.90;;;;;;5028453;28;20032;-85
2021/11/09 06:55:45;;;;;;;58.63;21.08;;;3.90;99.90;;;;;;5047106;28;20469;-86
2021/11/09 06:58:10;;;;;;;60.67;19.92;;;3.90;99.90;;;;;;5038211;28;20029;-86
2021/11/09 07:00:37;;;;;;;53.28;20.35;;;3.90;99.90;;;;;;5032555;28;20048;-86
2021/11/09 07:03:03;;;;;;;57.97;19.73;;;3.90;99.90;;;;;;5032123;28;20072;-86
2021/11/09 07:05:29;;;;;;;54.53;19.73;;;3.90;99.90;;;;;;5033945;28;20784;-86
2021/11/09 07:07:55;;;;;;;47.53;18.88;;;3.90;99.90;;;;;;5034006;28;20025;-86
2021/11/09 07:10:21;;;;;;;48.60;19.02;;;3.90;99.90;;;;;;5038693;28;20028;-85
2021/11/09 07:12:47;;;;;;;50.38;19.67;;;3.90;99.90;;;;;;5038751;28;20397;-86
2021/11/09 07:15:14;;;;;;;51.60;21.15;;;3.90;99.90;;;;;;5038511;28;20396;-85
2021/11/09 07:17:41;;;;;;;66.05;21.95;;;3.90;99.90;;;;;;5035833;28;20036;-86
2021/11/09 07:20:11;;;;;;;52.55;20.55;;;3.90;99.90;;;;;;5025020;28;20025;-86
2021/11/09 07:22:38;;;;;;;66.53;21.90;;;4.00;99.90;;;;;;5039395;28;20025;-88
2021/11/09 07:25:04;;;;;;;52.03;20.67;;;3.90;99.90;;;;;;5038403;28;20028;-86
2021/11/09 07:27:30;;;;;;;54.75;20.65;;;4.00;99.90;;;;;;5037579;28;20129;-85
2021/11/09 07:29:58;;;;;;;50.47;21.35;;;4.00;99.90;;;;;;5035920;28;20037;-86
2021/11/09 07:32:25;;;;;;;58.35;21.08;;;4.10;99.90;;;;;;5035717;28;20389;-86
2021/11/09 07:34:53;;;;;;;52.58;20.30;;;4.10;99.90;;;;;;5040057;28;20079;-86
2021/11/09 07:37:20;;;;;;;52.42;19.70;;;4.10;99.90;;;;;;5039997;28;20094;-85
2021/11/09 07:39:46;;;;;;;59.50;20.98;;;4.10;99.90;;;;;;5038662;28;20036;-84
2021/11/09 07:42:12;;;;;;;52.85;20.15;;;4.10;99.90;;;;;;5031125;28;20201;-84
2021/11/09 07:44:37;;;;;;;51.05;19.80;;;4.20;99.90;;;;;;5020174;28;20033;-85
2021/11/09 07:47:04;;;;;;;47.70;19.95;;;4.20;99.90;;;;;;5033555;28;20366;-85
2021/11/09 07:49:30;;;;;;;54.28;21.08;;;4.20;99.90;;;;;;5035123;28;20041;-85
2021/11/09 07:51:56;;;;;;;55.05;20.58;;;4.30;99.90;;;;;;5035849;28;20033;-84
2021/11/09 07:54:28;;;;;;;49.95;22.02;;;4.30;99.90;;;;;;5037725;28;20392;-84
2021/11/09 07:57:14;;;;;;;47.65;20.05;;;4.30;99.90;;;;;;5038250;28;20029;-84
2021/11/09 07:59:48;;;;;;;56.13;21.80;;;4.40;99.90;;;;;;5037721;28;20049;-84
2021/11/09 08:02:26;;;;;;;50.65;21.60;;;4.50;99.90;;;;;;5052246;28;20032;-84
2021/11/09 08:05:04;;;;;;;53.03;22.27;;;4.50;99.90;;;;;;5034701;28;20131;-85
2021/11/09 08:07:36;;;;;;;50.58;22.55;;;4.60;99.90;;;;;;5037006;28;20075;-84
2021/11/09 08:10:03;;;;;;;56.10;22.25;;;4.70;99.90;;;;;;5037123;28;20041;-85
2021/11/09 08:12:29;;;;;;;39.75;20.08;;;4.80;99.90;;;;;;5037428;28;20029;-85
2021/11/09 08:14:54;;;;;;;56.17;22.08;;;4.90;99.90;;;;;;5037058;28;20182;-85
2021/11/09 08:17:20;;;;;;;49.28;20.23;;;5.00;99.90;;;;;;5036923;28;20029;-85
2021/11/09 08:19:45;;;;;;;38.63;19.38;;;5.10;99.90;;;;;;5037841;28;20029;-84
2021/11/09 08:22:11;;;;;;;50.72;19.35;;;5.20;99.90;;;;;;5040731;28;20053;-84
2021/11/09 08:24:37;;;;;;;41.47;19.00;;;5.20;99.90;;;;;;5039783;28;20388;-85
2021/11/09 08:27:05;;;;;;;46.92;19.80;;;5.30;99.90;;;;;;5030360;28;20029;-84
2021/11/09 08:29:32;;;;;;;52.42;20.13;;;5.40;99.90;;;;;;5022830;28;20041;-85
2021/11/09 08:31:59;;;;;;;37.80;19.08;;;5.50;99.90;;;;;;5021142;28;20028;-84
2021/11/09 08:34:28;;;;;;;49.72;19.75;;;5.60;99.90;;;;;;5035899;28;20396;-84
2021/11/09 08:36:55;;;;;;;45.70;18.55;;;5.70;99.90;;;;;;5041295;28;20461;-92
2021/11/09 08:40:08;;;;;;;45.35;19.02;;;5.80;99.90;;;;;;5049846;28;20377;-84
2021/11/09 08:42:28;;;;;;;45.03;18.08;;;5.90;99.90;;;;;;5047495;28;20048;-85
2021/11/09 08:45:04;;;;;;;45.80;18.13;;;6.00;99.90;;;;;;5036708;28;20037;-86
2021/11/09 08:47:34;;;;;;;40.72;18.05;;;6.10;99.90;;;;;;5035993;28;20020;-85
2021/11/09 08:49:59;;;;;;;39.65;18.55;;;6.20;99.90;;;;;;5038780;28;20099;-86
2021/11/09 08:52:27;;;;;;;39.03;18.10;;;6.30;99.90;;;;;;5034841;28;20067;-86
2021/11/09 08:55:11;;;;;;;35.03;17.20;;;6.40;99.90;;;;;;5046399;28;20037;-86
2021/11/09 09:05:52;;;;;;;41.47;16.40;;;6.80;99.90;;;;;;5050382;28;20403;-85
2021/11/09 09:08:18;;;;;;;31.00;14.93;;;6.90;99.90;;;;;;5038816;28;20108;-85
2021/11/09 09:10:44;;;;;;;43.08;16.67;;;7.00;99.90;;;;;;5037833;28;20029;-84
2021/11/09 09:13:09;;;;;;;41.20;15.40;;;7.10;99.90;;;;;;5034442;28;20025;-84
2021/11/09 09:15:37;;;;;;;38.13;14.52;;;7.20;99.90;;;;;;5045873;28;20053;-90
2021/11/09 09:18:04;;;;;;;32.15;15.68;;;7.30;99.90;;;;;;5044103;28;20392;-84
2021/11/09 09:20:40;;;;;;;33.30;14.80;;;7.40;99.90;;;;;;5027253;28;20543;-84
2021/11/09 09:23:11;;;;;;;42.15;14.52;;;7.50;99.90;;;;;;5027871;28;20037;-85
2021/11/09 09:25:51;;;;;;;36.33;15.00;;;7.50;99.90;;;;;;5044662;28;20021;-84
2021/11/09 09:31:46;;;;;;;35.45;14.07;;;7.70;99.90;;;;;;5054019;28;20067;-84
2021/11/09 09:57:59;;;;;;;33.28;16.38;;;8.60;99.90;;;;;;5057138;28;20051;-85
2021/11/09 10:00:25;;;;;;;33.25;14.80;;;8.70;99.90;;;;;;5050536;28;20048;-84
2021/11/09 10:02:53;;;;;;;30.92;13.38;;;8.70;99.90;;;;;;5036540;28;20036;-84
2021/11/09 10:05:21;;;;;;;28.70;11.73;;;8.80;99.90;;;;;;5038935;28;20494;-85
2021/11/09 10:07:53;;;;;;;28.83;10.10;;;8.90;99.90;;;;;;5035915;28;20024;-86
2021/11/09 10:10:25;;;;;;;27.37;10.90;;;9.00;99.90;;;;;;5044667;28;20112;-85
2021/11/09 10:13:09;;;;;;;30.40;10.73;;;9.10;99.90;;;;;;5022505;28;20287;-85
2021/11/09 10:15:38;;;;;;;25.45;9.43;;;9.20;99.90;;;;;;5045236;28;20029;-85
2021/11/09 10:18:09;;;;;;;25.73;9.40;;;9.20;99.90;;;;;;5035336;28;20029;-85
2021/11/09 10:20:41;;;;;;;26.67;9.43;;;9.30;99.90;;;;;;5039142;28;20025;-84
2021/11/09 10:23:11;;;;;;;24.63;9.23;;;9.30;99.90;;;;;;5023552;28;20025;-84
2021/11/09 10:25:37;;;;;;;22.40;8.80;;;9.40;99.90;;;;;;5028422;28;20029;-84
2021/11/09 10:28:13;;;;;;;22.05;8.90;;;9.40;99.90;;;;;;5039911;28;20028;-84
2021/11/09 10:30:43;;;;;;;23.85;9.15;;;9.50;99.90;;;;;;5036070;28;20094;-84
2021/11/09 10:33:14;;;;;;;29.73;9.20;;;9.60;99.90;;;;;;5031990;28;20022;-84
2021/11/09 10:35:41;;;;;;;25.42;8.73;;;9.60;99.90;;;;;;5042558;28;20032;-85
2021/11/09 10:38:08;;;;;;;27.70;9.02;;;9.60;99.90;;;;;;5046994;28;20017;-84
2021/11/09 10:40:36;;;;;;;22.05;9.02;;;9.70;99.90;;;;;;5036004;28;20029;-84
2021/11/09 10:43:05;;;;;;;29.00;9.20;;;9.70;99.90;;;;;;5035749;28;20031;-85
2021/11/09 10:45:35;;;;;;;22.17;9.43;;;9.80;99.90;;;;;;5022972;28;20481;-85
2021/11/09 10:48:04;;;;;;;19.75;8.18;;;9.80;99.90;;;;;;5020214;28;20064;-85
2021/11/09 10:50:35;;;;;;;20.30;8.48;;;9.80;99.90;;;;;;5036663;28;20036;-85
2021/11/09 10:53:06;;;;;;;22.67;9.18;;;9.90;99.90;;;;;;5035430;28;20029;-86
2021/11/09 10:55:36;;;;;;;34.47;10.45;;;9.90;99.90;;;;;;5050427;28;20652;-86
2021/11/09 11:03:22;;;;;;;31.25;9.98;;;10.10;99.90;;;;;;5042627;28;20504;-85
2021/11/09 11:05:48;;;;;;;23.65;9.32;;;10.20;99.90;;;;;;5033466;28;20612;-84
2021/11/09 11:08:14;;;;;;;24.50;9.43;;;10.20;99.90;;;;;;5027483;28;20033;-84
2021/11/09 11:10:39;;;;;;;27.85;9.25;;;10.30;99.90;;;;;;5033679;28;20052;-84
2021/11/09 11:13:23;;;;;;;25.35;9.13;;;10.30;99.90;;;;;;5036072;28;20021;-84
2021/11/09 11:16:16;;;;;;;23.92;9.30;;;10.30;99.90;;;;;;5041660;28;20504;-85
2021/11/09 11:18:55;;;;;;;28.60;8.88;;;10.40;99.90;;;;;;5032631;28;20098;-85
2021/11/09 11:21:28;;;;;;;26.90;9.02;;;10.40;99.90;;;;;;5034160;28;20032;-85
2021/11/09 11:23:54;;;;;;;20.10;7.82;;;10.50;99.90;;;;;;5029217;28;20041;-85
2021/11/09 11:26:21;;;;;;;25.23;9.20;;;10.50;99.90;;;;;;5030987;28;20029;-85
2021/11/09 11:28:49;;;;;;;26.65;9.43;;;10.50;99.90;;;;;;5050617;28;20021;-85
2021/11/09 11:31:15;;;;;;;28.98;9.25;;;10.60;99.90;;;;;;5033724;28;20388;-85
2021/11/09 11:33:42;;;;;;;21.35;9.35;;;10.60;99.90;;;;;;5022941;28;20500;-85
2021/11/09 11:36:08;;;;;;;28.08;8.77;;;10.70;99.90;;;;;;5033210;28;20136;-84
2021/11/09 11:38:45;;;;;;;22.58;8.10;;;10.80;99.90;;;;;;5033670;28;20518;-85
2021/11/09 11:41:11;;;;;;;25.73;7.80;;;10.80;99.90;;;;;;5034440;28;20108;-85
2021/11/09 11:43:42;;;;;;;26.60;8.45;;;10.80;99.90;;;;;;5049812;28;20049;-84
2021/11/09 11:46:35;;;;;;;27.92;9.57;;;10.80;99.90;;;;;;5037968;28;20033;-85
2021/11/09 11:49:03;;;;;;;22.48;8.10;;;10.90;99.90;;;;;;5037020;28;20036;-85
2021/11/09 11:51:30;;;;;;;26.23;8.20;;;10.90;99.90;;;;;;5036890;28;20401;-85
2021/11/09 11:53:56;;;;;;;28.88;9.18;;;10.90;99.90;;;;;;5055516;28;20025;-85
2021/11/09 11:56:44;;;;;;;22.35;7.72;;;11.00;99.90;;;;;;5037418;28;20021;-84
2021/11/09 11:59:23;;;;;;;26.25;8.25;;;11.00;99.90;;;;;;5036559;28;20033;-85
2021/11/09 12:01:50;;;;;;;19.42;6.63;;;11.10;99.90;;;;;;5032902;28;20039;-84
2021/11/09 12:04:54;;;;;;;22.40;7.20;;;11.10;99.90;;;;;;5028526;28;20499;-84
2021/11/09 12:07:41;;;;;;;27.75;7.93;;;11.20;99.90;;;;;;5037066;28;20025;-86
2021/11/09 12:10:09;;;;;;;19.73;6.47;;;11.20;99.90;;;;;;5033007;28;20028;-85
2021/11/09 12:12:35;;;;;;;23.02;7.45;;;11.30;99.90;;;;;;5043678;28;20085;-85
2021/11/09 12:15:08;;;;;;;24.10;7.57;;;11.30;99.90;;;;;;5037337;28;20112;-85
2021/11/09 12:17:38;;;;;;;18.38;6.45;;;11.40;99.90;;;;;;5037760;28;20025;-86
2021/11/09 12:20:13;;;;;;;23.10;6.97;;;11.50;99.90;;;;;;5036822;28;20481;-86
2021/11/09 12:22:42;;;;;;;27.30;7.03;;;11.60;99.90;;;;;;5035313;28;20036;-86
2021/11/09 12:25:21;;;;;;;28.63;7.65;;;11.60;99.90;;;;;;5055679;28;20033;-86
2021/11/09 12:27:49;;;;;;;25.73;7.22;;;11.60;99.90;;;;;;5037666;28;20029;-85
2021/11/09 12:30:34;;;;;;;21.40;7.13;;;11.70;99.90;;;;;;5028408;28;20034;-86
2021/11/09 12:33:23;;;;;;;20.75;6.78;;;11.80;99.90;;;;;;5041298;28;20018;-85
2021/11/09 12:36:06;;;;;;;25.98;6.45;;;11.80;99.90;;;;;;5048942;28;20094;-86
2021/11/09 12:38:56;;;;;;;28.30;7.78;;;11.80;99.90;;;;;;5054073;28;20040;-85
2021/11/09 12:41:29;;;;;;;18.50;6.22;;;11.90;99.90;;;;;;5038102;28;20050;-85
2021/11/09 12:43:57;;;;;;;22.83;6.78;;;11.90;99.90;;;;;;5056306;28;20041;-85
2021/11/09 12:46:24;;;;;;;24.50;7.03;;;11.90;99.90;;;;;;5037974;28;20477;-86
2021/11/09 12:49:00;;;;;;;23.02;6.35;;;11.90;99.90;;;;;;5039241;28;20098;-85
2021/11/09 12:51:31;;;;;;;15.90;6.32;;;11.90;99.90;;;;;;5038679;28;20024;-86
2021/11/09 12:54:04;;;;;;;19.70;6.60;;;11.90;99.90;;;;;;5039223;28;20021;-85
2021/11/09 12:56:33;;;;;;;;;;;12.00;99.90;;;;;;5027329;28;20036;-85
2021/11/09 12:59:04;;;;;;;22.20;7.20;;;12.00;99.90;;;;;;5043056;28;19944;-85
2021/11/09 13:01:43;;;;;;;19.80;6.20;;;12.00;99.90;;;;;;5049827;28;20100;-86
2021/11/09 13:04:28;;;;;;;16.38;5.78;;;12.10;99.90;;;;;;5036870;28;20037;-85
2021/11/09 13:07:49;;;;;;;19.17;5.03;;;12.20;99.90;;;;;;5044165;28;20556;-85
2021/11/09 13:09:54;;;;;;;18.35;5.97;;;12.20;99.90;;;;;;5048846;28;20037;-85
2021/11/09 13:12:25;;;;;;;22.23;5.43;;;12.20;99.90;;;;;;5038536;28;20116;-85
2021/11/09 13:15:15;;;;;;;18.52;5.47;;;12.20;99.90;;;;;;5034054;28;20037;-85
2021/11/09 13:17:54;;;;;;;16.45;4.75;;;12.20;99.90;;;;;;5038159;28;20031;-85
2021/11/09 13:22:58;;;;;;;20.85;6.07;;;12.30;99.90;;;;;;5056181;28;20020;-86
2021/11/09 13:25:33;;;;;;;18.05;5.30;;;12.30;99.90;;;;;;5037407;28;20128;-86
2021/11/09 13:28:02;;;;;;;17.45;5.75;;;12.30;99.90;;;;;;5038666;28;20637;-86
2021/11/09 13:30:28;;;;;;;18.48;4.97;;;12.40;99.90;;;;;;5055596;28;20074;-86
2021/11/09 13:32:56;;;;;;;14.52;5.25;;;12.40;99.90;;;;;;5033588;28;20130;-86
2021/11/09 13:35:26;;;;;;;24.27;5.07;;;12.40;99.90;;;;;;5037388;28;20033;-86
2021/11/09 13:38:13;;;;;;;21.77;5.13;;;12.40;99.90;;;;;;5050414;28;20021;-85
2021/11/09 13:40:53;;;;;;;16.83;4.55;;;12.40;99.90;;;;;;5053402;28;20044;-86
2021/11/09 13:43:23;;;;;;;20.75;4.30;;;12.40;99.90;;;;;;5035010;28;20025;-85
2021/11/09 13:46:01;;;;;;;13.57;4.40;;;12.40;99.90;;;;;;5049741;28;20036;-86
2021/11/09 13:48:29;;;;;;;16.23;4.38;;;12.50;99.90;;;;;;5052685;28;20062;-86
2021/11/09 13:50:59;;;;;;;18.70;4.63;;;12.60;99.90;;;;;;5033063;28;20041;-86
2021/11/09 13:53:28;;;;;;;19.02;4.63;;;12.60;99.90;;;;;;5033137;28;20048;-85
2021/11/09 13:55:54;;;;;;;15.27;4.72;;;12.50;99.90;;;;;;5046497;28;20021;-86
2021/11/09 13:58:21;;;;;;;17.58;3.85;;;12.40;99.90;;;;;;5051398;28;20029;-86
2021/11/09 14:00:55;;;;;;;17.30;4.30;;;12.40;99.90;;;;;;5019204;28;20526;-85
2021/11/09 14:09:18;;;;;;;16.50;3.67;;;12.30;99.90;;;;;;5024940;28;20306;-85
2021/11/09 14:16:59;;;;;;;20.58;5.05;;;12.20;99.90;;;;;;5040180;28;20048;-87
2021/11/09 14:19:27;;;;;;;17.80;4.47;;;12.20;99.80;;;;;;5035072;28;20462;-87
2021/11/09 14:21:53;;;;;;;26.15;5.25;;;12.10;99.90;;;;;;5033987;28;20021;-87
2021/11/09 14:24:25;;;;;;;21.60;4.80;;;12.10;99.80;;;;;;5030086;28;20037;-86
2021/11/09 14:27:02;;;;;;;16.52;4.35;;;12.10;99.70;;;;;;5028720;28;20025;-86
2021/11/09 14:29:30;;;;;;;18.55;4.43;;;12.10;99.50;;;;;;5030974;28;20416;-86
2021/11/09 14:32:16;;;;;;;17.70;4.63;;;12.10;99.50;;;;;;5025798;28;20017;-86
2021/11/09 14:35:02;;;;;;;17.88;3.97;;;12.10;99.50;;;;;;5037500;28;20024;-86
2021/11/09 14:37:31;;;;;;;20.50;3.92;;;12.10;99.50;;;;;;5029945;28;20033;-86
2021/11/09 14:40:10;;;;;;;17.48;4.25;;;12.10;99.60;;;;;;5031485;28;20017;-86
2021/11/09 14:42:43;;;;;;;15.93;3.80;;;12.10;99.50;;;;;;5036801;28;20033;-86
2021/11/09 14:47:46;;;;;;;19.67;4.72;;;12.10;99.50;;;;;;5054628;28;20603;-87
2021/11/09 14:50:42;;;;;;;17.50;4.55;;;12.10;99.50;;;;;;5032227;28;20052;-88
2021/11/09 14:53:04;;;;;;;20.08;4.47;;;12.10;99.60;;;;;;5045863;28;20041;-86
2021/11/09 14:55:47;;;;;;;14.90;4.07;;;12.10;99.70;;;;;;5050139;28;20102;-87
2021/11/09 14:58:24;;;;;;;15.15;4.43;;;12.10;99.70;;;;;;5033088;28;20066;-87
2021/11/09 15:00:50;;;;;;;17.58;3.83;;;12.10;99.50;;;;;;5027708;28;20460;-86
2021/11/09 15:03:16;;;;;;;17.98;4.35;;;12.00;99.50;;;;;;5035520;28;20021;-87
2021/11/09 15:05:43;;;;;;;18.35;3.75;;;12.00;99.50;;;;;;5030770;28;20033;-86
2021/11/09 15:08:16;;;;;;;18.42;4.78;;;12.00;99.30;;;;;;5035972;28;20120;-87
2021/11/09 15:10:55;;;;;;;15.80;3.53;;;12.00;99.40;;;;;;5034900;28;20025;-86
2021/11/09 15:25:03;;;;;;;13.93;3.53;;;11.90;99.30;;;;;;5036143;28;20035;-86